Huvudsida
METAR-TAF:

METAR-TAF

Flygplatser :

Nizjnevartovsk, Ryssland

latitud: 60-56N, longitud: 076-29E, höjd: 54 m

Aktuellt väderrapport

Denna rapport gjordes för 26 minuter sedan, klockan 14:30 UTC
Vind 4 kt från sydost
Temperatur 11°C
Fuktighet 87%
Tryck 1013 hPa
Sikt 10 km eller mer
Inga moln under 1 500 m eller inga cumulonimbus

METAR: USNN 201430Z 14002MPS CAVOK 11/09 Q1013 R03/0///65 NOSIG RMK QFE756

Tid: 19:56 (14:56 UTC)

Väderprognos

Denna rapport gjordes för 56 minuter sedan, klockan 14:00 UTC
Prognos gäller från 20 kl. 15 UTC till 21 kl. 15 UTC
Vind 6 kt från ost/nordost
Sikt 10 km eller mer
Spridda moln på en höjd av 2000 ft
Temporärt
från 20 kl. 15 UTC till 20 kl. 18 UTC
Vind 2 kt varierande vindriktning

TAF: USNN 201400Z 2015/2115 06003MPS 9999 SCT020 TEMPO 2015/2018 VRB01MPS

Aktuella väderrapporter och prognoser från 4000 flygplatser (METAR- och TAF-rapporter).

De tillgängliga stationerna syns som gula och röda prickar på kartan.

För musen över prickarna för att se namnen på stationerna.

Klicka sedan för att få väderrapporter och prognoser.

För att ändra kartan: Klicka på de gröna knapparna med ett svart kors på för att zooma in; den gröna knappen med ett streck på för att zooma ut; eller på de gröna pilarna för angränsande kartor.


METAR-TAF: